Time;durP1;ratioP1;P1;durP2;ratioP2;P2;SDS_P1;SDS_P2;PMS_P1;PMS_P2;Temp;Humidity;BMP_temperature;BMP_pressure;BME280_temperature;BME280_humidity;BME280_pressure;Samples;Min_cycle;Max_cycle;Signal;HPM_P1;HPM_P2
2023/10/20 00:00:48;;;;;;;103.25;35.00;;;;;;;9.20;100.00;98428.34;5092935;28;20047;-79
2023/10/20 00:03:15;;;;;;;87.60;37.45;;;;;;;9.18;100.00;98419.56;5093434;28;20069;-79
2023/10/20 00:05:41;;;;;;;89.32;34.15;;;;;;;9.21;100.00;98427.03;5092772;28;20036;-79
2023/10/20 00:08:08;;;;;;;105.40;36.58;;;;;;;9.27;100.00;98435.53;5093901;28;20036;-80
2023/10/20 00:10:35;;;;;;;92.63;32.90;;;;;;;9.26;100.00;98429.06;5093259;28;20028;-81
2023/10/20 00:13:02;;;;;;;98.35;36.72;;;;;;;9.32;100.00;98414.78;5093280;28;20480;-79
2023/10/20 00:15:36;;;;;;;103.85;36.78;;;;;;;9.33;100.00;98399.22;5093466;28;20020;-82
2023/10/20 00:18:04;;;;;;;84.30;31.83;;;;;;;9.21;100.00;98381.44;5094652;28;20020;-81
2023/10/20 00:20:32;;;;;;;99.05;35.20;;;;;;;9.22;100.00;98383.00;5093242;28;20102;-79
2023/10/20 00:22:59;;;;;;;94.43;34.85;;;;;;;9.21;100.00;98372.88;5094732;28;20051;-80
2023/10/20 00:25:33;;;;;;;92.80;33.60;;;;;;;9.22;100.00;98373.66;5094423;28;20069;-79
2023/10/20 00:28:00;;;;;;;84.85;34.30;;;;;;;9.16;100.00;98358.69;5092598;28;20517;-81
2023/10/20 00:30:27;;;;;;;90.55;33.17;;;;;;;9.12;100.00;98361.84;5093807;28;20020;-81
2023/10/20 00:32:52;;;;;;;81.93;34.25;;;;;;;9.11;100.00;98362.34;5094347;28;20024;-81
2023/10/20 00:35:18;;;;;;;85.53;33.92;;;;;;;9.10;100.00;98357.97;5094272;28;20098;-81
2023/10/20 00:37:43;;;;;;;94.97;32.55;;;;;;;9.09;100.00;98360.06;5090927;28;20028;-79
2023/10/20 00:40:10;;;;;;;89.72;33.80;;;;;;;9.05;100.00;98342.47;5092330;28;20035;-81
2023/10/20 00:42:37;;;;;;;78.82;31.73;;;;;;;9.05;100.00;98342.47;5094113;28;20107;-79
2023/10/20 00:45:05;;;;;;;97.95;34.13;;;;;;;9.00;100.00;98342.53;5092707;28;20024;-79
2023/10/20 00:47:31;;;;;;;81.50;33.10;;;;;;;9.06;100.00;98349.69;5091334;28;20047;-80
2023/10/20 00:49:58;;;;;;;88.85;35.55;;;;;;;9.07;100.00;98359.81;5076426;28;20116;-79
2023/10/20 00:52:25;;;;;;;86.63;31.60;;;;;;;9.10;100.00;98357.97;5084672;28;20024;-79
2023/10/20 00:55:03;;;;;;;89.43;31.98;;;;;;;9.10;100.00;98357.97;5076067;28;20055;-80
2023/10/20 00:57:29;;;;;;;90.05;32.35;;;;;;;9.14;100.00;98372.72;5093762;28;20047;-79
2023/10/20 00:59:57;;;;;;;84.43;31.52;;;;;;;9.17;100.00;98378.13;5058980;28;20040;-79
2023/10/20 01:02:24;;;;;;;81.97;31.42;;;;;;;9.21;100.00;98392.06;5094135;28;20028;-79
2023/10/20 01:04:50;;;;;;;96.18;32.72;;;;;;;9.25;100.00;98393.31;5075655;28;20128;-79
2023/10/20 01:07:15;;;;;;;86.55;32.22;;;;;;;9.24;100.00;98385.31;5075925;28;20043;-81
2023/10/20 01:09:43;;;;;;;89.20;36.85;;;;;;;9.30;100.00;98385.28;5075722;28;20034;-80
2023/10/20 01:12:12;;;;;;;97.22;33.80;;;;;;;9.29;100.00;98381.66;5059271;28;20040;-78
2023/10/20 01:14:37;;;;;;;80.63;30.98;;;;;;;9.18;100.00;98359.72;5076336;28;20071;-79
2023/10/20 01:17:04;;;;;;;81.88;32.47;;;;;;;9.22;100.00;98362.28;5092139;28;20071;-78
2023/10/20 01:19:31;;;;;;;77.25;31.05;;;;;;;9.21;100.00;98358.66;5058365;28;20036;-80
2023/10/20 01:21:57;;;;;;;77.95;31.75;;;;;;;9.20;100.00;98342.06;5094061;28;20023;-79
2023/10/20 01:24:22;;;;;;;81.65;30.58;;;;;;;9.23;100.00;98324.69;5093174;28;20422;-79
2023/10/20 01:26:47;;;;;;;84.30;31.00;;;;;;;9.20;100.00;98325.75;5096176;28;20453;-79
2023/10/20 01:29:15;;;;;;;86.63;30.77;;;;;;;9.19;100.00;98314.91;5097583;28;20366;-81
2023/10/20 01:31:41;;;;;;;79.32;31.40;;;;;;;9.17;100.00;98318.28;5061098;28;20047;-79
2023/10/20 01:34:06;;;;;;;80.70;31.60;;;;;;;9.15;100.00;98322.97;5095821;28;20080;-81
2023/10/20 01:36:31;;;;;;;80.85;31.35;;;;;;;9.15;100.00;98337.22;5062886;28;20377;-78
2023/10/20 01:38:59;;;;;;;84.50;32.67;;;;;;;9.17;100.00;98346.00;5097257;28;20107;-80
2023/10/20 01:41:26;;;;;;;89.13;34.15;;;;;;;9.21;100.00;98343.63;5097906;28;20028;-81
2023/10/20 01:44:06;;;;;;;82.20;32.60;;;;;;;9.24;100.00;98340.50;5062603;28;20024;-80
2023/10/20 01:46:32;;;;;;;97.57;35.15;;;;;;;9.30;100.00;98328.28;5095948;28;20035;-80
2023/10/20 01:48:58;;;;;;;94.03;35.28;;;;;;;9.30;100.00;98326.16;5094110;28;20546;-80
2023/10/20 01:51:24;;;;;;;89.53;32.25;;;;;;;9.30;100.00;98317.63;5097279;28;20028;-80
2023/10/20 01:53:50;;;;;;;87.43;31.50;;;;;;;9.31;100.00;98329.78;5079324;28;20096;-80
2023/10/20 01:56:19;;;;;;;85.40;31.83;;;;;;;9.32;100.00;98332.13;5096149;28;20039;-80
2023/10/20 01:58:46;;;;;;;81.93;32.35;;;;;;;9.34;100.00;98334.44;5078607;28;20056;-80
2023/10/20 02:01:12;;;;;;;90.18;34.35;;;;;;;9.34;100.00;98340.94;5097645;28;20111;-81
2023/10/20 02:03:39;;;;;;;100.43;33.90;;;;;;;9.30;100.00;98334.72;5077967;28;20127;-80
2023/10/20 02:06:06;;;;;;;86.80;33.70;;;;;;;9.29;100.00;98321.81;5096355;28;20418;-79
2023/10/20 02:08:32;;;;;;;92.68;34.17;;;;;;;9.25;100.00;98316.38;5096508;28;20039;-80
2023/10/20 02:10:58;;;;;;;88.35;32.65;;;;;;;9.18;100.00;98310.50;5097455;28;20020;-81
2023/10/20 02:13:23;;;;;;;84.30;34.58;;;;;;;9.19;100.00;98304.28;5063223;28;20019;-80
2023/10/20 02:15:52;;;;;;;84.55;32.85;;;;;;;9.18;100.00;98302.72;5097875;28;20096;-82
2023/10/20 02:18:26;;;;;;;87.53;34.85;;;;;;;9.17;100.00;98312.56;5098318;28;20424;-78
2023/10/20 02:20:58;;;;;;;87.93;34.03;;;;;;;9.16;100.00;98315.94;5080604;28;20047;-79
2023/10/20 02:23:25;;;;;;;88.85;34.75;;;;;;;9.12;100.00;98304.06;5080147;28;20031;-80
2023/10/20 02:26:01;;;;;;;93.45;33.78;;;;;;;9.13;100.00;98297.84;5096593;28;20427;-80
2023/10/20 02:28:28;;;;;;;91.20;33.25;;;;;;;9.11;100.00;98288.28;5078698;28;20439;-79
2023/10/20 02:31:00;;;;;;;87.72;33.25;;;;;;;9.07;100.00;98294.28;5078304;28;20024;-80
2023/10/20 02:33:35;;;;;;;;;;;;;;;9.08;100.00;98284.44;5061880;28;20081;-79
2023/10/20 02:36:01;;;;;;;75.95;30.52;;;;;;;9.09;100.00;98282.34;5078540;28;19912;-80
2023/10/20 02:38:27;;;;;;;77.43;32.35;;;;;;;9.07;100.00;98271.47;5078293;28;20046;-79
2023/10/20 02:40:54;;;;;;;76.47;29.98;;;;;;;9.09;100.00;98290.91;5095732;28;20028;-80
2023/10/20 02:43:21;;;;;;;78.43;30.40;;;;;;;9.07;100.00;98284.94;5078463;28;20085;-79
2023/10/20 02:45:54;;;;;;;75.78;28.98;;;;;;;9.10;100.00;98286.75;5096146;28;20094;-81
2023/10/20 02:48:29;;;;;;;77.88;31.40;;;;;;;9.12;100.00;98296.31;5096061;28;20028;-80
2023/10/20 02:50:56;;;;;;;70.10;28.63;;;;;;;9.15;100.00;98298.06;5096013;28;20028;-80
2023/10/20 02:53:24;;;;;;;78.75;30.58;;;;;;;9.17;100.00;98298.31;5096185;28;20103;-79
2023/10/20 02:55:49;;;;;;;72.32;29.45;;;;;;;9.16;100.00;98293.94;5096042;28;20024;-80
2023/10/20 02:58:18;;;;;;;76.40;29.30;;;;;;;9.15;100.00;98291.63;5093284;28;20048;-80
2023/10/20 03:00:45;;;;;;;77.82;30.48;;;;;;;9.15;100.00;98288.78;5077830;28;20024;-80
2023/10/20 03:03:12;;;;;;;71.28;27.35;;;;;;;9.18;100.00;98294.19;5080988;28;20485;-81
2023/10/20 03:05:43;;;;;;;72.80;28.13;;;;;;;9.19;100.00;98275.00;5096575;28;20027;-79
2023/10/20 03:08:10;;;;;;;64.90;28.33;;;;;;;9.19;100.00;98272.94;5078909;28;20024;-79
2023/10/20 03:10:37;;;;;;;74.10;29.40;;;;;;;9.20;100.00;98276.53;5094887;28;20031;-79
2023/10/20 03:13:04;;;;;;;76.85;27.88;;;;;;;9.19;100.00;98272.16;5060835;28;20035;-79
2023/10/20 03:15:31;;;;;;;67.20;28.55;;;;;;;9.22;100.00;98251.91;5077661;28;20038;-80
2023/10/20 03:17:58;;;;;;;70.22;29.15;;;;;;;9.20;100.00;98251.66;5077346;28;20517;-80
2023/10/20 03:20:28;;;;;;;62.33;29.13;;;;;;;9.24;100.00;98248.53;5096100;28;20039;-79
2023/10/20 03:22:54;;;;;;;66.68;28.83;;;;;;;9.24;100.00;98246.47;5097896;28;20016;-79
2023/10/20 03:25:20;;;;;;;66.65;29.48;;;;;;;9.25;100.00;98239.44;5100964;28;20032;-80
2023/10/20 03:27:47;;;;;;;79.45;29.45;;;;;;;9.22;100.00;98246.22;5084548;28;20009;-79
2023/10/20 03:30:18;;;;;;;72.18;29.38;;;;;;;9.19;100.00;98261.53;5080468;28;20036;-79
2023/10/20 03:32:51;;;;;;;79.35;29.73;;;;;;;9.22;100.00;98277.56;5098062;28;20028;-78
2023/10/20 03:35:18;;;;;;;65.60;28.52;;;;;;;9.25;100.00;98285.03;5115376;28;20028;-80
2023/10/20 03:37:43;;;;;;;71.60;29.15;;;;;;;9.24;100.00;98286.34;5103343;28;20178;-80
2023/10/20 03:40:16;;;;;;;74.00;28.55;;;;;;;9.23;100.00;98284.03;5097155;28;20055;-80
2023/10/20 03:42:45;;;;;;;72.22;30.13;;;;;;;9.25;100.00;98287.88;5080521;28;20043;-81
2023/10/20 03:45:14;;;;;;;68.18;29.88;;;;;;;9.25;100.00;98270.78;5094001;28;20040;-80
2023/10/20 03:47:39;;;;;;;75.10;30.08;;;;;;;9.29;100.00;98270.50;5044752;28;20024;-80
2023/10/20 03:50:15;;;;;;;69.13;29.10;;;;;;;9.31;100.00;98272.78;5077019;28;20051;-81
2023/10/20 03:52:44;;;;;;;70.95;28.40;;;;;;;9.30;100.00;98271.28;5061631;28;20433;-80
2023/10/20 03:55:15;;;;;;;71.72;27.20;;;;;;;9.32;100.00;98280.03;5077700;28;20032;-79
2023/10/20 03:57:42;;;;;;;68.80;29.63;;;;;;;9.31;100.00;98276.41;5074034;28;20381;-79
2023/10/20 04:00:28;;;;;;;60.63;27.33;;;;;;;9.30;100.00;98266.31;5074922;28;20028;-80
2023/10/20 04:02:55;;;;;;;63.22;27.55;;;;;;;9.27;100.00;98248.22;5073712;28;20028;-79
2023/10/20 04:05:23;;;;;;;69.63;28.73;;;;;;;9.27;100.00;98251.06;5073868;28;20032;-79
2023/10/20 04:07:48;;;;;;;69.57;28.95;;;;;;;9.25;100.00;98252.91;5074788;28;20028;-80
2023/10/20 04:10:15;;;;;;;67.25;29.52;;;;;;;9.27;100.00;98253.94;5073294;28;20112;-80
2023/10/20 04:12:44;;;;;;;74.40;31.00;;;;;;;9.27;100.00;98256.00;5074854;28;20032;-79
2023/10/20 04:15:25;;;;;;;70.45;30.73;;;;;;;9.25;100.00;98250.81;5074006;28;20035;-80
2023/10/20 04:17:54;;;;;;;66.82;28.75;;;;;;;9.27;100.00;98250.31;5073600;28;20039;-81
2023/10/20 04:20:23;;;;;;;73.57;27.92;;;;;;;9.26;100.00;98266.63;5074058;28;20358;-80
2023/10/20 04:22:58;;;;;;;71.93;29.52;;;;;;;9.24;100.00;98262.78;5072677;28;20508;-80
2023/10/20 04:25:33;;;;;;;68.90;29.50;;;;;;;9.23;100.00;98261.22;5073804;28;20567;-80
2023/10/20 04:57:53;;;;;;;62.15;26.48;;;;;;;9.32;100.00;98237.28;5053807;28;20052;-78
2023/10/20 05:08:19;;;;;;;63.25;27.15;;;;;;;9.36;100.00;98226.38;5102477;28;20032;-79
2023/10/20 05:10:47;;;;;;;59.20;26.83;;;;;;;9.38;100.00;98218.06;5097663;28;20500;-78
2023/10/20 05:13:13;;;;;;;63.83;27.55;;;;;;;9.35;100.00;98207.75;5114257;28;20024;-85
2023/10/20 05:15:40;;;;;;;65.45;28.23;;;;;;;9.44;100.00;98219.53;5113026;28;20064;-81
2023/10/20 05:18:11;;;;;;;67.57;27.73;;;;;;;9.46;100.00;98216.13;5108798;28;20020;-78
2023/10/20 05:20:41;;;;;;;65.97;27.02;;;;;;;9.45;100.00;98212.50;5084146;28;20043;-79
2023/10/20 05:23:09;;;;;;;65.68;26.83;;;;;;;9.37;100.00;98202.25;5086009;28;20466;-80
2023/10/20 05:25:37;;;;;;;64.15;26.05;;;;;;;9.37;100.00;98205.09;5099939;28;20024;-80
2023/10/20 05:28:05;;;;;;;60.15;26.13;;;;;;;9.41;100.00;98211.28;5104188;28;20109;-80
2023/10/20 05:30:53;;;;;;;74.43;30.88;;;;;;;9.40;100.00;98216.19;5088506;28;20024;-80
2023/10/20 05:33:20;;;;;;;64.70;27.98;;;;;;;9.39;100.00;98222.47;5109342;28;20028;-80
2023/10/20 05:35:46;;;;;;;70.63;31.50;;;;;;;9.37;100.00;98225.84;5097562;28;20028;-85
2023/10/20 05:38:14;;;;;;;61.63;27.33;;;;;;;9.31;100.00;98215.78;5096415;28;20028;-87
2023/10/20 05:40:41;;;;;;;63.25;26.38;;;;;;;9.41;100.00;98225.53;5104237;28;20027;-85
2023/10/20 05:43:08;;;;;;;67.00;26.75;;;;;;;9.44;100.00;98228.09;5103748;28;20035;-88
2023/10/20 05:45:38;;;;;;;66.80;28.25;;;;;;;9.49;100.00;98226.50;5100871;28;20028;-87
2023/10/20 05:48:05;;;;;;;68.25;29.73;;;;;;;9.47;100.00;98221.31;5102321;28;20084;-85
2023/10/20 05:50:37;;;;;;;63.97;26.75;;;;;;;9.51;100.00;98229.56;5080172;28;20039;-80
2023/10/20 05:53:15;;;;;;;60.70;25.98;;;;;;;9.50;100.00;98228.78;5097534;28;20028;-82
2023/10/20 05:55:41;;;;;;;55.60;25.25;;;;;;;9.53;100.00;98233.44;5062540;28;20031;-82
2023/10/20 05:58:08;;;;;;;60.80;25.88;;;;;;;9.49;100.00;98221.56;5075918;28;20052;-83
2023/10/20 06:00:35;;;;;;;56.63;24.90;;;;;;;9.49;100.00;98217.94;5076805;28;20051;-82
2023/10/20 06:03:02;;;;;;;65.00;27.30;;;;;;;9.50;100.00;98205.97;5077381;28;20045;-83
2023/10/20 06:05:29;;;;;;;54.05;23.83;;;;;;;9.49;100.00;98198.75;5077234;28;20035;-81
2023/10/20 06:07:55;;;;;;;57.08;26.73;;;;;;;9.47;100.00;98184.25;5074441;28;20032;-80
2023/10/20 06:10:22;;;;;;;57.20;23.55;;;;;;;9.45;100.00;98186.84;5093512;28;20119;-80
2023/10/20 06:12:54;;;;;;;57.10;24.00;;;;;;;9.46;100.00;98184.78;5083085;28;20024;-80
2023/10/20 06:15:39;;;;;;;;;;;;;;;9.46;100.00;98176.22;5076243;28;20028;-82
2023/10/20 06:18:05;;;;;;;59.03;25.10;;;;;;;9.45;100.00;98172.59;5076164;28;19904;-81
2023/10/20 06:20:31;;;;;;;49.47;24.67;;;;;;;9.53;100.00;98187.81;5075496;28;20052;-82
2023/10/20 06:22:57;;;;;;;57.05;25.75;;;;;;;9.57;100.00;98196.06;5075500;28;20035;-82
2023/10/20 06:25:23;;;;;;;60.83;26.08;;;;;;;9.60;100.00;98192.13;5074698;28;20020;-82
2023/10/20 06:27:49;;;;;;;57.22;24.88;;;;;;;9.64;100.00;98184.06;5077055;28;20043;-83
2023/10/20 06:30:21;;;;;;;55.50;24.98;;;;;;;9.66;100.00;98195.66;5075814;28;20469;-82
2023/10/20 06:35:53;;;;;;;55.85;24.25;;;;;;;9.70;100.00;98190.44;5075464;28;20043;-82
2023/10/20 06:41:04;;;;;;;54.10;23.83;;;;;;;9.70;100.00;98187.56;5074282;28;20054;-81
2023/10/20 06:43:37;;;;;;;62.80;26.17;;;;;;;9.79;100.00;98197.88;5073813;28;20470;-81
2023/10/20 06:46:04;;;;;;;55.55;24.80;;;;;;;9.85;100.00;98193.63;5076334;28;20028;-82
2023/10/20 06:48:31;;;;;;;60.53;23.48;;;;;;;9.77;100.00;98167.03;5076078;28;20040;-82
2023/10/20 06:50:57;;;;;;;56.80;23.77;;;;;;;9.85;100.00;98187.91;5076203;28;20027;-81
2023/10/20 06:53:25;;;;;;;56.25;24.80;;;;;;;9.82;100.00;98182.53;5076720;28;20025;-81
2023/10/20 06:55:50;;;;;;;58.95;24.30;;;;;;;9.79;100.00;98172.97;5077066;28;20032;-84
2023/10/20 06:58:17;;;;;;;60.70;25.05;;;;;;;9.86;100.00;98174.44;5074766;28;20056;-82
2023/10/20 07:00:45;;;;;;;51.72;23.70;;;;;;;9.86;100.00;98169.50;5077106;28;20086;-81
2023/10/20 07:03:11;;;;;;;60.35;25.05;;;;;;;9.85;100.00;98162.25;5075309;28;20424;-82
2023/10/20 07:05:39;;;;;;;60.45;25.25;;;;;;;9.85;100.00;98152.91;5058400;28;20089;-83
2023/10/20 07:08:05;;;;;;;57.20;25.25;;;;;;;9.85;100.00;98136.56;5076042;28;20032;-82
2023/10/20 07:10:34;;;;;;;62.90;25.85;;;;;;;9.82;100.00;98131.97;5076536;28;20028;-80
2023/10/20 07:13:03;;;;;;;;;;;;;;;9.88;100.00;98129.03;5060113;28;20040;-84
2023/10/20 07:15:29;;;;;;;60.65;24.27;;;;;;;9.89;100.00;98122.75;5079092;28;19913;-81
2023/10/20 07:17:55;;;;;;;62.80;24.90;;;;;;;9.92;100.00;98120.94;5077140;28;20477;-82
2023/10/20 07:20:20;;;;;;;61.15;24.42;;;;;;;9.96;100.00;98121.38;5076990;28;20123;-82
2023/10/20 07:22:54;;;;;;;65.30;25.00;;;;;;;10.02;100.00;98122.84;5075271;28;20097;-82
2023/10/20 07:25:20;;;;;;;60.55;25.33;;;;;;;10.04;100.00;98110.88;5074819;28;20016;-82
2023/10/20 07:27:46;;;;;;;62.60;26.33;;;;;;;10.11;100.00;98130.22;5075003;28;20037;-82
2023/10/20 07:30:12;;;;;;;57.72;24.85;;;;;;;10.14;100.00;98125.53;5075957;28;20039;-81
2023/10/20 07:32:39;;;;;;;60.67;26.20;;;;;;;10.18;100.00;98132.44;5075726;28;20459;-81
2023/10/20 07:35:06;;;;;;;64.50;26.70;;;;;;;10.21;100.00;98130.59;5074279;28;20033;-81
2023/10/20 07:37:33;;;;;;;60.28;25.00;;;;;;;10.23;100.00;98137.31;5076594;28;20037;-82
2023/10/20 07:39:58;;;;;;;64.05;23.73;;;;;;;10.27;100.00;98142.69;5078605;28;20040;-80
2023/10/20 07:42:25;;;;;;;64.78;24.88;;;;;;;10.30;100.00;98139.50;5096037;28;20047;-81
2023/10/20 07:44:50;;;;;;;65.68;25.25;;;;;;;10.35;100.00;98126.44;5086348;28;20619;-82
2023/10/20 07:47:18;;;;;;;62.67;24.27;;;;;;;10.35;100.00;98115.81;5086733;28;20035;-79
2023/10/20 07:49:51;;;;;;;70.35;26.70;;;;;;;10.37;100.00;98113.19;5080062;28;20512;-82
2023/10/20 07:52:17;;;;;;;70.38;27.48;;;;;;;10.35;100.00;98106.47;5086231;28;20058;-82
2023/10/20 07:54:44;;;;;;;66.60;26.27;;;;;;;10.34;100.00;98099.22;5088933;28;20064;-83
2023/10/20 07:57:12;;;;;;;75.30;26.98;;;;;;;10.37;100.00;98109.56;5090251;28;20062;-82
2023/10/20 07:59:39;;;;;;;63.42;25.55;;;;;;;10.36;100.00;98103.06;5097785;28;20071;-81
2023/10/20 08:02:06;;;;;;;69.63;25.42;;;;;;;10.39;100.00;98104.81;5096821;28;20031;-83
2023/10/20 08:04:36;;;;;;;76.22;27.45;;;;;;;10.40;100.00;98099.88;5078418;28;20023;-82
2023/10/20 08:07:03;;;;;;;70.60;28.30;;;;;;;10.41;100.00;98090.00;5079514;28;20392;-81
2023/10/20 08:09:29;;;;;;;69.72;26.25;;;;;;;10.33;100.00;98072.00;5077788;28;20457;-82
2023/10/20 08:12:04;;;;;;;75.65;27.88;;;;;;;10.36;100.00;98070.91;5060903;28;20110;-83
2023/10/20 08:14:33;;;;;;;60.88;26.17;;;;;;;10.32;100.00;98068.38;5095706;28;20111;-81
2023/10/20 08:17:03;;;;;;;71.82;27.70;;;;;;;10.36;100.00;98070.91;5096360;28;20020;-82
2023/10/20 08:19:30;;;;;;;73.38;27.65;;;;;;;10.35;100.00;98067.28;5078524;28;20469;-83
2023/10/20 08:22:04;;;;;;;75.60;28.88;;;;;;;10.39;100.00;98064.09;5077473;28;20388;-83
2023/10/20 08:24:30;;;;;;;79.38;27.75;;;;;;;10.40;100.00;98062.78;5095956;28;20069;-82
2023/10/20 08:26:57;;;;;;;74.60;26.80;;;;;;;10.42;100.00;98051.59;5095537;28;20028;-82
2023/10/20 08:29:39;;;;;;;80.78;29.63;;;;;;;10.43;100.00;98051.03;5096180;28;20043;-83
2023/10/20 08:32:14;;;;;;;;;;;;;;;10.43;100.00;98050.28;5078583;28;20027;-82
2023/10/20 08:34:39;;;;;;;77.13;28.25;;;;;;;10.41;100.00;98058.59;5094310;28;19912;-81
2023/10/20 08:37:05;;;;;;;72.72;28.25;;;;;;;10.40;100.00;98054.22;5094420;28;20108;-83
2023/10/20 08:39:31;;;;;;;72.20;27.92;;;;;;;10.41;100.00;98041.47;5076937;28;20036;-82
2023/10/20 08:42:00;;;;;;;72.20;26.65;;;;;;;10.36;100.00;98022.38;5095061;28;20020;-81
2023/10/20 08:44:26;;;;;;;70.95;28.73;;;;;;;10.39;100.00;98035.53;5077001;28;20030;-81
2023/10/20 08:46:53;;;;;;;80.05;29.70;;;;;;;10.41;100.00;98025.13;5076592;28;20036;-82
2023/10/20 08:49:33;;;;;;;78.40;29.25;;;;;;;10.43;100.00;98030.28;5076876;28;20495;-84
2023/10/20 08:52:04;;;;;;;76.07;28.50;;;;;;;10.43;100.00;98016.75;5094691;28;20024;-83
2023/10/20 08:54:38;;;;;;;91.95;29.73;;;;;;;10.53;100.00;98011.41;5094701;28;20086;-83
2023/10/20 08:57:05;;;;;;;72.97;28.33;;;;;;;10.56;100.00;98013.16;5095084;28;20101;-84
2023/10/20 08:59:32;;;;;;;77.07;27.15;;;;;;;10.58;100.00;98021.94;5060532;28;20109;-81
2023/10/20 09:01:58;;;;;;;74.85;29.95;;;;;;;10.54;100.00;98015.78;5077680;28;20437;-85
2023/10/20 09:04:26;;;;;;;68.90;26.85;;;;;;;10.59;100.00;98017.00;5076510;28;20024;-81
2023/10/20 09:06:52;;;;;;;78.40;28.08;;;;;;;10.60;100.00;98002.16;5076429;28;20078;-83
2023/10/20 09:09:19;;;;;;;69.75;27.45;;;;;;;10.62;100.00;97998.78;5077372;28;20470;-81
2023/10/20 09:11:46;;;;;;;78.55;28.92;;;;;;;10.61;100.00;97980.88;5060620;28;20039;-83
2023/10/20 09:14:16;;;;;;;67.78;26.13;;;;;;;10.62;100.00;97978.78;5087556;28;20120;-82
2023/10/20 09:16:44;;;;;;;72.80;29.17;;;;;;;10.61;100.00;97982.94;5110149;28;20066;-81
2023/10/20 09:19:12;;;;;;;72.38;28.00;;;;;;;10.57;100.00;97974.72;5091192;28;20032;-82
2023/10/20 09:21:42;;;;;;;83.20;29.08;;;;;;;10.63;100.00;97974.63;5061503;28;20036;-85
2023/10/20 09:24:17;;;;;;;74.07;28.48;;;;;;;10.64;100.00;97981.84;5078212;28;20023;-83
2023/10/20 09:26:44;;;;;;;67.00;26.13;;;;;;;10.64;100.00;97984.69;5094919;28;20019;-83
2023/10/20 09:29:13;;;;;;;77.10;29.17;;;;;;;10.65;100.00;97981.28;5094810;28;20036;-82
2023/10/20 09:31:39;;;;;;;72.22;27.92;;;;;;;10.63;100.00;97975.34;5094304;28;20035;-81
2023/10/20 09:34:06;;;;;;;64.60;27.05;;;;;;;10.67;100.00;97972.97;5094008;28;20040;-84
2023/10/20 09:36:33;;;;;;;69.75;27.85;;;;;;;10.68;100.00;97974.47;5076727;28;20031;-86
2023/10/20 09:39:00;;;;;;;67.90;28.75;;;;;;;10.70;100.00;97980.41;5042787;28;20032;-81
2023/10/20 09:41:27;;;;;;;74.25;27.90;;;;;;;10.75;100.00;97985.25;5076788;28;20036;-81
2023/10/20 09:44:07;;;;;;;75.25;29.63;;;;;;;10.76;100.00;97986.78;5076622;28;20436;-82
2023/10/20 09:46:43;;;;;;;75.05;29.08;;;;;;;10.76;100.00;97983.94;5094984;28;20030;-82
2023/10/20 09:49:19;;;;;;;79.20;29.60;;;;;;;10.77;100.00;97979.00;5079891;28;20139;-82
2023/10/20 09:51:46;;;;;;;77.65;27.75;;;;;;;10.77;100.00;97973.28;5080363;28;20027;-81
2023/10/20 09:54:24;;;;;;;75.85;28.65;;;;;;;10.78;100.00;97971.94;5079900;28;20034;-82
2023/10/20 09:56:51;;;;;;;75.07;29.30;;;;;;;10.83;100.00;97966.09;5097614;28;20439;-81
2023/10/20 09:59:27;;;;;;;76.68;28.98;;;;;;;10.89;100.00;97963.13;5079743;28;20089;-82
2023/10/20 10:01:56;;;;;;;83.40;26.80;;;;;;;10.93;100.00;97972.13;5080725;28;20055;-82
2023/10/20 10:04:31;;;;;;;71.57;27.92;;;;;;;10.95;100.00;97961.69;5062641;28;20056;-83
2023/10/20 10:07:03;;;;;;;84.70;28.75;;;;;;;10.98;100.00;97954.09;5079616;28;20028;-83
2023/10/20 10:09:43;;;;;;;64.75;26.48;;;;;;;11.03;100.00;97944.63;5097582;28;20028;-84
2023/10/20 10:12:26;;;;;;;61.67;26.17;;;;;;;11.08;100.00;97945.81;5079428;28;20476;-82
2023/10/20 10:15:01;;;;;;;87.43;28.58;;;;;;;11.09;100.00;97945.28;5079609;28;20035;-82
2023/10/20 10:17:27;;;;;;;68.15;30.25;;;;;;;11.13;100.00;97936.38;5079633;28;20115;-82
2023/10/20 10:20:02;;;;;;;71.57;27.80;;;;;;;11.13;100.00;97927.81;5079165;28;20055;-82
2023/10/20 10:22:29;;;;;;;74.72;29.55;;;;;;;11.19;100.00;97934.16;5079718;28;20028;-82
2023/10/20 10:24:59;;;;;;;74.45;29.17;;;;;;;11.24;100.00;97941.84;5079646;28;20496;-85
2023/10/20 10:27:29;;;;;;;74.70;27.90;;;;;;;11.26;100.00;97937.13;5062957;28;20366;-83
2023/10/20 10:29:59;;;;;;;57.13;25.73;;;;;;;11.28;100.00;97930.84;5099249;28;20031;-84
2023/10/20 10:32:44;;;;;;;67.68;28.00;;;;;;;11.29;100.00;97933.13;5098633;28;20062;-85
2023/10/20 10:35:15;;;;;;;65.97;26.83;;;;;;;11.31;100.00;97926.88;5080841;28;20058;-84
2023/10/20 10:37:42;;;;;;;82.57;28.90;;;;;;;11.29;100.00;97901.69;5081099;28;20028;-81
2023/10/20 10:40:15;;;;;;;67.07;30.42;;;;;;;11.37;100.00;97913.19;5097930;28;20047;-86
2023/10/20 10:42:43;;;;;;;66.22;27.50;;;;;;;11.39;100.00;97922.00;5097462;28;20035;-84
2023/10/20 10:45:34;;;;;;;73.35;28.92;;;;;;;11.43;100.00;97927.34;5097508;28;20024;-85
2023/10/20 10:48:11;;;;;;;68.70;28.58;;;;;;;11.45;100.00;97942.66;5097394;28;20032;-82
2023/10/20 10:50:42;;;;;;;66.68;28.60;;;;;;;11.49;100.00;97939.44;5061752;28;20492;-85
2023/10/20 10:53:16;;;;;;;66.40;28.35;;;;;;;11.48;100.00;97932.94;5097075;28;20126;-83
2023/10/20 10:55:43;;;;;;;69.80;26.73;;;;;;;11.56;100.00;97933.03;5096780;28;20051;-83
2023/10/20 10:58:24;;;;;;;62.25;27.48;;;;;;;11.60;100.00;97925.63;5096783;28;20414;-85
2023/10/20 11:00:51;;;;;;;66.40;29.40;;;;;;;11.63;100.00;97929.47;5097223;28;20032;-82
2023/10/20 11:03:19;;;;;;;65.70;28.08;;;;;;;11.66;100.00;97922.63;5079129;28;20035;-82
2023/10/20 11:05:47;;;;;;;71.30;27.73;;;;;;;11.69;100.00;97904.34;5096163;28;20059;-83
2023/10/20 11:08:12;;;;;;;63.03;26.98;;;;;;;11.74;100.00;97897.72;5078612;28;20031;-83
2023/10/20 11:10:42;;;;;;;71.55;28.00;;;;;;;11.78;100.00;97900.97;5061642;28;20027;-83
2023/10/20 11:13:23;;;;;;;71.05;27.40;;;;;;;11.81;100.00;97888.44;5045114;28;20429;-83
2023/10/20 11:15:49;;;;;;;70.03;28.70;;;;;;;11.82;100.00;97882.13;5096657;28;20040;-83
2023/10/20 11:18:16;;;;;;;68.35;30.02;;;;;;;11.87;100.00;97874.72;5062501;28;20415;-84
2023/10/20 11:20:47;;;;;;;65.65;28.38;;;;;;;11.91;100.00;97862.94;5078970;28;20043;-84
2023/10/20 11:23:14;;;;;;;63.38;27.77;;;;;;;12.00;100.00;97866.06;5088022;28;20035;-83
2023/10/20 11:25:43;;;;;;;62.72;30.52;;;;;;;12.04;100.00;97857.09;5090979;28;20043;-82
2023/10/20 11:28:08;;;;;;;60.40;27.90;;;;;;;12.09;100.00;97865.53;5090417;28;20059;-82
2023/10/20 11:30:42;;;;;;;59.03;27.45;;;;;;;12.13;100.00;97868.03;5056830;28;20032;-83
2023/10/20 11:33:11;;;;;;;57.83;27.10;;;;;;;12.12;100.00;97870.13;5090595;28;20481;-82
2023/10/20 11:35:39;;;;;;;64.60;27.63;;;;;;;12.12;100.00;97857.91;5098658;28;20035;-83
2023/10/20 11:38:06;;;;;;;58.75;26.48;;;;;;;12.10;100.00;97861.34;5068547;28;20035;-82
2023/10/20 11:40:32;;;;;;;57.95;26.77;;;;;;;12.10;100.00;97872.03;5107405;28;20032;-81
2023/10/20 11:42:59;;;;;;;58.08;27.75;;;;;;;12.12;100.00;97875.06;5091241;28;20023;-82
2023/10/20 11:45:25;;;;;;;55.47;26.23;;;;;;;12.11;100.00;97879.28;5109901;28;20016;-82
2023/10/20 11:48:06;;;;;;;65.95;28.45;;;;;;;12.09;100.00;97867.63;5108569;28;20092;-81
2023/10/20 11:50:33;;;;;;;61.17;28.77;;;;;;;12.06;100.00;97863.78;5084016;28;20135;-82
2023/10/20 11:53:00;;;;;;;68.47;29.95;;;;;;;12.06;100.00;97852.31;5096537;28;20554;-82
2023/10/20 11:55:26;;;;;;;66.03;28.75;;;;;;;12.04;100.00;97829.25;5044947;28;20036;-82
2023/10/20 11:57:52;;;;;;;65.07;28.83;;;;;;;12.03;100.00;97824.06;5094732;28;20048;-82
2023/10/20 12:00:32;;;;;;;60.53;27.85;;;;;;;12.03;100.00;97824.06;5095747;28;20043;-81
2023/10/20 12:03:04;;;;;;;66.97;30.17;;;;;;;12.05;100.00;97827.91;5083359;28;20032;-82
2023/10/20 12:05:33;;;;;;;62.85;29.30;;;;;;;12.11;100.00;97822.78;5117756;28;20495;-81